createdAt,value
2023-05-09T00:01:54.251Z,3.80
2023-05-09T00:04:21.485Z,3.90
2023-05-09T00:06:48.749Z,3.90
2023-05-09T00:09:16.048Z,3.90
2023-05-09T00:11:43.635Z,4.00
2023-05-09T00:14:14.030Z,4.00
2023-05-09T00:16:41.535Z,4.00
2023-05-09T00:19:08.643Z,3.80
2023-05-09T00:21:35.944Z,3.90
2023-05-09T00:24:03.155Z,3.70
2023-05-09T00:26:30.474Z,3.60
2023-05-09T00:28:57.581Z,3.50
2023-05-09T00:31:24.764Z,3.70
2023-05-09T00:33:53.743Z,3.60
2023-05-09T00:36:21.413Z,3.70
2023-05-09T00:38:48.551Z,3.70
2023-05-09T00:41:15.786Z,3.60
2023-05-09T00:43:43.146Z,3.40
2023-05-09T00:46:10.463Z,3.30
2023-05-09T00:48:37.788Z,3.30
2023-05-09T00:51:05.043Z,3.50
2023-05-09T00:53:32.404Z,3.50
2023-05-09T00:56:00.638Z,3.60
2023-05-09T00:58:28.312Z,3.70
2023-05-09T01:00:55.456Z,3.60
2023-05-09T01:03:22.959Z,3.70
2023-05-09T01:06:15.558Z,3.60
2023-05-09T01:08:48.866Z,3.60
2023-05-09T01:11:34.864Z,3.30
2023-05-09T01:14:20.682Z,3.20
2023-05-09T01:16:57.397Z,3.30
2023-05-09T01:19:43.168Z,3.40
2023-05-09T01:22:13.715Z,3.40
2023-05-09T01:24:59.860Z,3.20
2023-05-09T01:27:53.813Z,3.10
2023-05-09T01:30:21.367Z,3.20
2023-05-09T01:32:51.853Z,3.30
2023-05-09T01:35:24.380Z,3.30
2023-05-09T01:37:51.882Z,3.50
2023-05-09T01:40:21.596Z,3.30
2023-05-09T01:42:58.957Z,3.40
2023-05-09T01:45:28.239Z,3.60
2023-05-09T01:47:57.630Z,3.40
2023-05-09T01:50:27.202Z,3.20
2023-05-09T01:52:56.915Z,3.10
2023-05-09T01:55:28.217Z,3.00
2023-05-09T01:57:57.854Z,3.20
2023-05-09T02:00:25.566Z,3.30
2023-05-09T02:02:53.434Z,3.30
2023-05-09T02:05:22.383Z,3.20
2023-05-09T02:07:50.100Z,3.30
2023-05-09T02:10:17.900Z,3.40
2023-05-09T02:12:45.087Z,3.50
2023-05-09T02:15:12.919Z,3.60
2023-05-09T02:17:40.688Z,3.60
2023-05-09T02:20:10.031Z,3.80
2023-05-09T02:22:37.716Z,3.70
2023-05-09T02:25:07.524Z,3.80
2023-05-09T02:27:35.717Z,3.70
2023-05-09T02:30:08.767Z,3.60
2023-05-09T02:32:38.926Z,3.90
2023-05-09T02:35:09.332Z,3.90
2023-05-09T02:37:38.570Z,4.20
2023-05-09T02:40:09.250Z,4.20
2023-05-09T02:42:36.677Z,4.20
2023-05-09T02:45:04.143Z,4.40
2023-05-09T02:47:34.495Z,4.30
2023-05-09T02:50:01.585Z,4.30
2023-05-09T02:52:31.769Z,4.30
2023-05-09T02:54:59.116Z,4.30
2023-05-09T02:57:26.476Z,4.20
2023-05-09T02:59:53.552Z,4.30
2023-05-09T03:02:20.870Z,4.40
2023-05-09T03:04:48.016Z,4.40
2023-05-09T03:07:15.159Z,4.60
2023-05-09T03:09:42.276Z,4.80
2023-05-09T03:12:09.658Z,4.90
2023-05-09T03:14:36.856Z,5.10
2023-05-09T03:17:03.951Z,4.90
2023-05-09T03:19:31.549Z,4.90
2023-05-09T03:21:58.629Z,4.90
2023-05-09T03:24:28.317Z,5.20
2023-05-09T03:26:55.571Z,5.30
2023-05-09T03:29:22.893Z,5.50
2023-05-09T03:31:50.200Z,5.70
2023-05-09T03:34:17.484Z,5.80
2023-05-09T03:36:45.166Z,6.00
2023-05-09T03:39:12.394Z,6.10
2023-05-09T03:41:39.810Z,6.40
2023-05-09T03:44:07.129Z,6.70
2023-05-09T03:46:34.494Z,6.90
2023-05-09T03:49:01.658Z,7.00
2023-05-09T03:51:28.874Z,7.10
2023-05-09T03:53:56.363Z,7.20
2023-05-09T03:56:23.639Z,7.40
2023-05-09T03:58:50.808Z,7.50
2023-05-09T04:01:18.392Z,7.80
2023-05-09T04:03:45.650Z,8.20
2023-05-09T04:06:12.887Z,8.40
2023-05-09T04:08:40.077Z,8.60
2023-05-09T04:11:07.540Z,8.60
2023-05-09T04:13:34.916Z,8.50
2023-05-09T04:16:02.201Z,8.40
2023-05-09T04:18:29.346Z,8.40
2023-05-09T04:20:56.454Z,8.90
2023-05-09T04:23:23.899Z,9.10
2023-05-09T04:25:52.384Z,9.30
2023-05-09T04:28:19.663Z,9.30
2023-05-09T04:30:46.822Z,9.10
2023-05-09T04:33:14.293Z,9.30
2023-05-09T04:35:41.484Z,9.40
2023-05-09T04:38:08.606Z,9.60
2023-05-09T04:40:36.513Z,9.80
2023-05-09T04:43:04.319Z,9.60
2023-05-09T04:45:32.008Z,9.90
2023-05-09T04:47:59.238Z,9.90
2023-05-09T04:50:26.620Z,9.90
2023-05-09T04:52:53.922Z,10.20
2023-05-09T04:55:21.299Z,10.20
2023-05-09T04:57:48.729Z,10.40
2023-05-09T05:00:17.773Z,10.40
2023-05-09T05:02:44.961Z,10.40
2023-05-09T05:05:12.751Z,10.00
2023-05-09T05:07:40.078Z,10.20
2023-05-09T05:10:07.693Z,10.50
2023-05-09T05:12:34.964Z,10.20
2023-05-09T05:15:02.243Z,10.60
2023-05-09T05:17:32.029Z,11.00
2023-05-09T05:19:59.465Z,11.00
2023-05-09T05:22:26.700Z,10.90
2023-05-09T05:24:53.773Z,10.80
2023-05-09T05:27:20.963Z,11.00
2023-05-09T05:29:48.056Z,10.80
2023-05-09T05:32:15.160Z,10.70
2023-05-09T05:34:42.258Z,11.10
2023-05-09T05:37:09.518Z,11.10
2023-05-09T05:39:36.916Z,11.20
2023-05-09T05:42:04.215Z,11.40
2023-05-09T05:44:31.328Z,11.50
2023-05-09T05:46:58.404Z,11.60
2023-05-09T05:49:28.654Z,11.70
2023-05-09T05:51:55.950Z,11.60
2023-05-09T05:54:23.053Z,11.30
2023-05-09T05:56:50.286Z,11.70
2023-05-09T05:59:17.535Z,11.60
2023-05-09T06:01:44.727Z,11.80
2023-05-09T06:04:11.934Z,12.20
2023-05-09T06:06:39.217Z,12.10
2023-05-09T06:09:06.341Z,12.00
2023-05-09T06:11:33.497Z,12.40
2023-05-09T06:14:00.910Z,12.60
2023-05-09T06:16:28.475Z,12.20
2023-05-09T06:18:56.296Z,12.20
2023-05-09T06:21:23.730Z,12.50
2023-05-09T06:24:07.795Z,12.40
2023-05-09T06:26:37.520Z,12.30
2023-05-09T06:29:06.624Z,13.00
2023-05-09T06:31:39.130Z,12.60
2023-05-09T06:34:06.763Z,12.10
2023-05-09T06:36:35.037Z,12.30
2023-05-09T06:39:02.262Z,12.30
2023-05-09T06:41:29.807Z,12.50
2023-05-09T06:43:57.015Z,13.10
2023-05-09T06:46:24.269Z,13.20
2023-05-09T06:48:51.457Z,12.50
2023-05-09T06:51:18.607Z,12.50
2023-05-09T06:53:46.076Z,13.20
2023-05-09T06:56:13.319Z,13.70
2023-05-09T06:58:40.586Z,14.20
2023-05-09T07:01:07.867Z,14.00
2023-05-09T07:03:35.152Z,14.20
2023-05-09T07:06:02.262Z,13.80
2023-05-09T07:08:29.364Z,13.80
2023-05-09T07:10:56.516Z,14.40
2023-05-09T07:13:24.039Z,13.80
2023-05-09T07:15:51.196Z,13.20
2023-05-09T07:18:18.409Z,13.10
2023-05-09T07:20:45.802Z,12.70
2023-05-09T07:23:12.920Z,12.70
2023-05-09T07:25:40.110Z,12.30
2023-05-09T07:28:07.289Z,12.10
2023-05-09T07:30:34.423Z,12.60
2023-05-09T07:33:01.998Z,14.00
2023-05-09T07:35:29.254Z,15.00
2023-05-09T07:37:56.516Z,15.30
2023-05-09T07:40:23.600Z,15.30
2023-05-09T07:42:51.759Z,15.30
2023-05-09T07:45:20.514Z,15.40
2023-05-09T07:47:49.253Z,14.30
2023-05-09T07:50:18.042Z,14.70
2023-05-09T07:52:45.554Z,14.80
2023-05-09T07:55:12.727Z,15.40
2023-05-09T07:57:58.515Z,15.00
2023-05-09T08:00:25.802Z,15.70
2023-05-09T08:02:54.126Z,14.70
2023-05-09T08:05:22.090Z,14.10
2023-05-09T08:07:49.326Z,13.80
2023-05-09T08:10:16.808Z,14.20
2023-05-09T08:12:43.996Z,14.80
2023-05-09T08:15:11.641Z,16.20
2023-05-09T08:17:38.845Z,15.60
2023-05-09T08:20:07.984Z,15.60
2023-05-09T08:22:35.396Z,15.30
2023-05-09T08:25:02.830Z,16.50
2023-05-09T08:27:31.493Z,17.10
2023-05-09T08:29:58.660Z,15.40
2023-05-09T08:32:26.125Z,15.20
2023-05-09T08:34:53.625Z,14.80
2023-05-09T08:37:20.790Z,15.10
2023-05-09T08:39:47.902Z,14.30
2023-05-09T08:42:18.900Z,13.80
2023-05-09T08:44:46.483Z,13.80
2023-05-09T08:47:14.343Z,14.80
2023-05-09T08:50:00.433Z,14.40
2023-05-09T08:52:27.746Z,15.20
2023-05-09T08:54:55.165Z,16.20
2023-05-09T08:57:22.616Z,15.80
2023-05-09T08:59:51.618Z,17.10
2023-05-09T09:02:19.834Z,16.30
2023-05-09T09:04:47.111Z,16.10
2023-05-09T09:07:15.610Z,17.40
2023-05-09T09:09:47.602Z,17.40
2023-05-09T09:12:17.079Z,16.00
2023-05-09T09:14:50.355Z,16.00
2023-05-09T09:17:20.737Z,15.10
2023-05-09T09:20:09.610Z,16.60
2023-05-09T09:22:40.447Z,17.20
2023-05-09T09:25:07.848Z,15.60
2023-05-09T09:27:35.666Z,16.20
2023-05-09T09:30:10.822Z,17.20
2023-05-09T09:32:40.340Z,17.10
2023-05-09T09:35:08.827Z,17.20
2023-05-09T09:37:37.749Z,15.90
2023-05-09T09:40:07.286Z,20.80
2023-05-09T09:42:42.989Z,17.50
2023-05-09T09:45:17.767Z,15.00
2023-05-09T09:47:47.226Z,14.50
2023-05-09T09:50:15.812Z,14.70
2023-05-09T09:52:53.921Z,14.50
2023-05-09T09:55:22.235Z,15.70
2023-05-09T09:57:49.542Z,16.00
2023-05-09T10:00:24.830Z,14.80
2023-05-09T10:02:56.778Z,14.20
2023-05-09T10:05:31.567Z,14.10
2023-05-09T10:08:03.084Z,14.50
2023-05-09T10:10:32.437Z,15.50
2023-05-09T10:13:07.753Z,19.20
2023-05-09T10:15:49.212Z,21.10
2023-05-09T10:18:25.516Z,21.30
2023-05-09T10:20:55.260Z,23.00
2023-05-09T10:23:24.386Z,23.20
2023-05-09T10:25:57.800Z,23.70
2023-05-09T10:28:31.694Z,22.50
2023-05-09T10:31:10.353Z,22.10
2023-05-09T10:33:49.726Z,21.70
2023-05-09T10:36:21.562Z,23.40
2023-05-09T10:38:49.909Z,18.60
2023-05-09T10:41:18.895Z,18.80
2023-05-09T10:43:46.926Z,21.80
2023-05-09T10:46:15.840Z,19.40
2023-05-09T10:48:44.325Z,18.80
2023-05-09T10:51:12.681Z,18.60
2023-05-09T10:53:48.033Z,16.80
2023-05-09T10:56:36.019Z,16.40
2023-05-09T10:59:03.372Z,16.00
2023-05-09T11:01:37.513Z,15.80
2023-05-09T11:04:17.363Z,15.40
2023-05-09T11:06:53.347Z,15.30
2023-05-09T11:09:38.233Z,14.90
2023-05-09T11:12:13.348Z,15.60
2023-05-09T11:14:45.403Z,15.70
2023-05-09T11:17:15.159Z,15.80
2023-05-09T11:19:49.125Z,18.80
2023-05-09T11:22:32.597Z,20.30
2023-05-09T11:25:14.669Z,19.10
2023-05-09T11:27:50.360Z,19.70
2023-05-09T11:30:19.918Z,17.30
2023-05-09T11:32:52.387Z,18.50
2023-05-09T11:35:21.715Z,20.60
2023-05-09T11:38:00.423Z,20.80
2023-05-09T11:40:29.157Z,21.90
2023-05-09T11:42:58.878Z,22.10
2023-05-09T11:45:31.793Z,22.80
2023-05-09T11:48:00.665Z,18.70
2023-05-09T11:50:27.958Z,19.50
2023-05-09T11:52:55.137Z,18.30
2023-05-09T11:55:23.301Z,19.10
2023-05-09T11:57:53.016Z,18.10
2023-05-09T12:00:22.556Z,19.40
2023-05-09T12:02:51.357Z,22.60
2023-05-09T12:05:21.032Z,21.20
2023-05-09T12:07:48.977Z,21.20
2023-05-09T12:10:20.655Z,20.80
2023-05-09T12:12:49.967Z,21.00
2023-05-09T12:15:18.144Z,20.60
2023-05-09T12:17:47.288Z,21.50
2023-05-09T12:20:15.507Z,21.30
2023-05-09T12:22:53.576Z,19.30
2023-05-09T12:25:22.502Z,17.70
2023-05-09T12:27:49.682Z,18.80
2023-05-09T12:30:18.680Z,17.50
2023-05-09T12:32:46.863Z,17.70
2023-05-09T12:35:14.788Z,17.20
2023-05-09T12:38:01.743Z,17.20
2023-05-09T12:40:28.946Z,19.30
2023-05-09T12:43:03.139Z,21.10
2023-05-09T12:45:33.869Z,21.70
2023-05-09T12:48:02.570Z,21.80
2023-05-09T12:50:36.783Z,21.30
2023-05-09T12:53:06.997Z,19.80
2023-05-09T12:55:41.164Z,18.50
2023-05-09T12:58:08.572Z,19.30
2023-05-09T13:00:46.072Z,19.20
2023-05-09T13:03:26.050Z,18.50
2023-05-09T13:06:01.204Z,19.80
2023-05-09T13:08:29.659Z,19.00
2023-05-09T13:11:15.006Z,18.60
2023-05-09T13:13:42.833Z,17.70
2023-05-09T13:16:11.221Z,18.30
2023-05-09T13:18:40.009Z,19.10
2023-05-09T13:21:07.496Z,19.30
2023-05-09T13:23:34.774Z,17.70
2023-05-09T13:26:01.925Z,16.90
2023-05-09T13:28:29.151Z,15.60
2023-05-09T13:30:56.336Z,15.30
2023-05-09T13:33:26.436Z,16.70
2023-05-09T13:35:54.210Z,17.00
2023-05-09T13:38:21.518Z,15.90
2023-05-09T13:40:48.834Z,17.30
2023-05-09T13:43:16.140Z,16.30
2023-05-09T13:45:43.799Z,17.60
2023-05-09T13:48:11.838Z,19.50
2023-05-09T13:50:39.306Z,19.50
2023-05-09T13:53:06.695Z,21.20
2023-05-09T13:55:34.681Z,20.60
2023-05-09T13:58:01.858Z,21.80
2023-05-09T14:00:29.269Z,21.70
2023-05-09T14:02:56.543Z,21.90
2023-05-09T14:05:23.786Z,19.80
2023-05-09T14:07:53.487Z,21.10
2023-05-09T14:10:20.769Z,21.00
2023-05-09T14:12:48.584Z,21.40
2023-05-09T14:15:16.728Z,21.90
2023-05-09T14:17:43.933Z,21.40
2023-05-09T14:20:12.479Z,19.20
2023-05-09T14:22:39.714Z,18.50
2023-05-09T14:25:07.380Z,19.20
2023-05-09T14:27:37.226Z,21.30
2023-05-09T14:30:05.285Z,20.20
2023-05-09T14:32:34.136Z,18.00
2023-05-09T14:35:01.358Z,16.80
2023-05-09T14:37:31.450Z,16.70
2023-05-09T14:40:05.405Z,16.70
2023-05-09T14:42:33.529Z,17.10
2023-05-09T14:45:00.830Z,17.30
2023-05-09T14:47:28.043Z,16.90
2023-05-09T14:49:56.144Z,16.20
2023-05-09T14:52:23.248Z,16.10
2023-05-09T14:54:50.602Z,15.70
2023-05-09T14:57:17.763Z,15.90
2023-05-09T14:59:44.900Z,15.60
2023-05-09T15:02:12.550Z,15.90
2023-05-09T15:04:41.493Z,15.60
2023-05-09T15:07:08.976Z,15.40
2023-05-09T15:09:36.179Z,15.40
2023-05-09T15:12:03.335Z,15.20
2023-05-09T15:14:30.524Z,14.90
2023-05-09T15:17:01.397Z,15.40
2023-05-09T15:19:31.687Z,15.20
2023-05-09T15:22:00.746Z,15.60
2023-05-09T15:24:28.217Z,15.20
2023-05-09T15:26:55.313Z,15.00
2023-05-09T15:29:22.711Z,14.90
2023-05-09T15:31:49.860Z,14.60
2023-05-09T15:34:17.202Z,14.50
2023-05-09T15:36:44.437Z,15.00
2023-05-09T15:39:11.878Z,15.00
2023-05-09T15:41:39.043Z,15.10
2023-05-09T15:44:07.495Z,15.20
2023-05-09T15:46:34.920Z,14.80
2023-05-09T15:49:02.105Z,14.60
2023-05-09T15:51:30.224Z,14.50
2023-05-09T15:53:57.528Z,14.70
2023-05-09T15:56:24.727Z,14.90
2023-05-09T15:58:51.996Z,15.00
2023-05-09T16:01:19.244Z,15.10
2023-05-09T16:03:46.700Z,15.20
2023-05-09T16:06:14.264Z,15.10
2023-05-09T16:08:41.379Z,15.30
2023-05-09T16:11:08.887Z,15.40
2023-05-09T16:13:36.344Z,15.40
2023-05-09T16:16:03.839Z,15.40
2023-05-09T16:18:31.618Z,14.90
2023-05-09T16:20:59.669Z,14.80
2023-05-09T16:23:26.969Z,14.80
2023-05-09T16:25:54.146Z,14.70
2023-05-09T16:28:23.655Z,14.70
2023-05-09T16:30:54.058Z,14.80
2023-05-09T16:33:21.418Z,14.70
2023-05-09T16:35:48.786Z,14.60
2023-05-09T16:38:16.075Z,14.50
2023-05-09T16:40:43.195Z,14.20
2023-05-09T16:43:10.449Z,14.10
2023-05-09T16:45:37.657Z,14.20
2023-05-09T16:48:05.233Z,14.10
2023-05-09T16:50:32.415Z,13.80
2023-05-09T16:52:59.849Z,13.80
2023-05-09T16:55:26.972Z,13.70
2023-05-09T16:57:54.214Z,13.80
2023-05-09T17:00:22.170Z,13.70
2023-05-09T17:02:49.592Z,13.60
2023-05-09T17:05:16.952Z,13.70
2023-05-09T17:07:44.110Z,13.70
2023-05-09T17:10:12.114Z,13.80
2023-05-09T17:12:39.838Z,13.70
2023-05-09T17:15:07.940Z,13.40
2023-05-09T17:17:36.103Z,13.60
2023-05-09T17:20:04.533Z,13.20
2023-05-09T17:22:32.189Z,12.90
2023-05-09T17:24:59.531Z,12.80
2023-05-09T17:27:27.181Z,12.70
2023-05-09T17:29:54.274Z,12.80
2023-05-09T17:32:21.784Z,12.80
2023-05-09T17:34:48.969Z,12.70
2023-05-09T17:37:17.294Z,12.80
2023-05-09T17:39:44.660Z,12.80
2023-05-09T17:42:13.210Z,12.80
2023-05-09T17:44:42.484Z,12.80
2023-05-09T17:47:12.681Z,12.90
2023-05-09T17:49:40.390Z,12.80
2023-05-09T17:52:08.103Z,13.00
2023-05-09T17:54:36.461Z,12.80
2023-05-09T17:57:03.850Z,12.70
2023-05-09T17:59:31.046Z,12.70
2023-05-09T18:01:58.508Z,12.80
2023-05-09T18:04:26.213Z,12.70
2023-05-09T18:06:53.496Z,12.70
2023-05-09T18:09:21.126Z,12.70
2023-05-09T18:11:48.935Z,12.50
2023-05-09T18:14:16.713Z,12.60
2023-05-09T18:16:43.895Z,12.60
2023-05-09T18:19:11.023Z,12.60
2023-05-09T18:21:38.827Z,12.60
2023-05-09T18:24:06.406Z,12.60
2023-05-09T18:26:33.611Z,12.60
2023-05-09T18:29:00.780Z,12.60
2023-05-09T18:31:28.129Z,12.50
2023-05-09T18:33:55.609Z,12.50
2023-05-09T18:36:22.747Z,12.50
2023-05-09T18:38:49.795Z,12.50
2023-05-09T18:41:17.660Z,12.50
2023-05-09T18:43:46.122Z,12.40
2023-05-09T18:46:20.754Z,12.50
2023-05-09T18:48:51.274Z,12.40
2023-05-09T18:51:19.091Z,12.30
2023-05-09T18:53:47.544Z,12.30
2023-05-09T18:56:14.986Z,12.40
2023-05-09T18:58:42.109Z,12.30
2023-05-09T19:01:11.747Z,12.50
2023-05-09T19:03:46.298Z,12.50
2023-05-09T19:06:14.892Z,12.40
2023-05-09T19:08:43.228Z,11.90
2023-05-09T19:11:11.802Z,11.70
2023-05-09T19:13:41.135Z,11.60
2023-05-09T19:16:08.954Z,11.80
2023-05-09T19:18:36.223Z,12.00
2023-05-09T19:21:21.657Z,11.70
2023-05-09T19:23:49.454Z,11.60
2023-05-09T19:26:17.826Z,11.50
2023-05-09T19:28:46.799Z,11.50
2023-05-09T19:31:15.784Z,11.70
2023-05-09T19:33:45.811Z,11.80
2023-05-09T19:36:14.026Z,11.90
2023-05-09T19:38:41.180Z,11.90
2023-05-09T19:41:08.364Z,11.90
2023-05-09T19:43:35.616Z,11.90
2023-05-09T19:46:02.751Z,11.80
2023-05-09T19:48:29.921Z,11.80
2023-05-09T19:50:59.095Z,11.80
2023-05-09T19:53:26.408Z,11.80
2023-05-09T19:55:53.676Z,11.80
2023-05-09T19:58:20.918Z,11.70
2023-05-09T20:00:48.823Z,11.70
2023-05-09T20:03:17.562Z,11.70
2023-05-09T20:05:44.758Z,11.70
2023-05-09T20:08:12.020Z,11.60
2023-05-09T20:10:39.175Z,11.60
2023-05-09T20:13:07.075Z,11.60
2023-05-09T20:15:34.269Z,11.60
2023-05-09T20:18:03.682Z,11.60
2023-05-09T20:20:32.418Z,11.40
2023-05-09T20:23:02.680Z,11.50
2023-05-09T20:25:29.865Z,11.40
2023-05-09T20:27:57.004Z,11.40
2023-05-09T20:30:24.115Z,11.40
2023-05-09T20:32:51.965Z,11.20
2023-05-09T20:35:19.436Z,11.20
2023-05-09T20:37:46.896Z,11.20
2023-05-09T20:40:14.565Z,11.20
2023-05-09T20:42:41.897Z,11.20
2023-05-09T20:45:09.550Z,11.30
2023-05-09T20:47:36.934Z,11.10
2023-05-09T20:50:04.207Z,11.20
2023-05-09T20:52:31.517Z,11.30
2023-05-09T20:54:59.413Z,11.20
2023-05-09T20:57:26.589Z,11.20
2023-05-09T20:59:53.743Z,11.10
2023-05-09T21:02:21.188Z,11.00
2023-05-09T21:04:48.751Z,11.00
2023-05-09T21:07:19.262Z,11.00
2023-05-09T21:09:48.029Z,10.90
2023-05-09T21:12:15.361Z,10.80
2023-05-09T21:14:42.785Z,10.80
2023-05-09T21:17:09.991Z,10.80
2023-05-09T21:19:37.166Z,10.90
2023-05-09T21:22:04.391Z,10.70
2023-05-09T21:24:31.505Z,10.70
2023-05-09T21:26:58.562Z,10.80
2023-05-09T21:29:25.762Z,10.80
2023-05-09T21:31:53.283Z,10.80
2023-05-09T21:34:21.623Z,10.70
2023-05-09T21:36:48.797Z,11.00
2023-05-09T21:39:15.923Z,10.90
2023-05-09T21:41:43.257Z,10.60
2023-05-09T21:44:12.229Z,10.70
2023-05-09T21:46:39.502Z,10.80
2023-05-09T21:49:06.752Z,10.70
2023-05-09T21:51:34.954Z,10.80
2023-05-09T21:54:02.357Z,10.70
2023-05-09T21:56:29.825Z,10.70
2023-05-09T21:58:56.934Z,10.50
2023-05-09T22:01:24.109Z,10.50
2023-05-09T22:03:51.957Z,10.50
2023-05-09T22:06:19.275Z,10.50
2023-05-09T22:08:46.381Z,10.40
2023-05-09T22:11:14.944Z,10.30
2023-05-09T22:13:42.644Z,10.40
2023-05-09T22:16:09.974Z,10.30
2023-05-09T22:18:37.305Z,10.30
2023-05-09T22:21:04.664Z,10.30
2023-05-09T22:23:31.897Z,10.30
2023-05-09T22:25:58.961Z,10.30
2023-05-09T22:28:26.059Z,10.20
2023-05-09T22:30:53.142Z,10.20
2023-05-09T22:33:20.677Z,10.20
2023-05-09T22:35:48.055Z,10.30
2023-05-09T22:38:15.236Z,10.40
2023-05-09T22:40:42.400Z,10.50
2023-05-09T22:43:11.007Z,10.50
2023-05-09T22:45:38.351Z,10.30
2023-05-09T22:48:06.064Z,10.30
2023-05-09T22:50:33.222Z,10.20
2023-05-09T22:53:01.098Z,10.30
2023-05-09T22:55:28.673Z,10.30
2023-05-09T22:57:55.840Z,10.20
2023-05-09T23:00:23.026Z,10.30
2023-05-09T23:02:50.302Z,10.30
2023-05-09T23:05:17.689Z,10.30
2023-05-09T23:07:45.010Z,10.20
2023-05-09T23:10:12.249Z,10.40
2023-05-09T23:12:39.337Z,10.30
2023-05-09T23:15:07.530Z,10.30
2023-05-09T23:17:35.324Z,10.20
2023-05-09T23:20:04.153Z,10.30
2023-05-09T23:22:32.380Z,10.30
2023-05-09T23:25:00.946Z,10.40
2023-05-09T23:27:28.516Z,10.20
2023-05-09T23:29:55.874Z,10.20
2023-05-09T23:32:23.252Z,10.40
2023-05-09T23:34:50.559Z,10.20
2023-05-09T23:37:18.051Z,10.10
2023-05-09T23:39:45.129Z,9.90
2023-05-09T23:42:12.585Z,9.80
2023-05-09T23:44:39.723Z,10.10
2023-05-09T23:47:07.036Z,10.00
2023-05-09T23:49:34.227Z,9.90
2023-05-09T23:52:01.418Z,9.80
2023-05-09T23:54:28.852Z,9.90
2023-05-09T23:56:59.153Z,9.80
2023-05-09T23:59:26.219Z,9.80
